ADDS METAR Data INFO
IDs: Format: Raw Decoded Include TAF

Data at: 1011 UTC 22 May 2018

KCRG 220953Z 13006KT 10SM SCT060 SCT085 BKN120 22/21 A3008 RMK AO2 SLP186 T02220206
KCRG 220853Z AUTO 12003KT 10SM FEW015 FEW090 BKN120 23/23 A3007 RMK AO2 SLP183 T02280228 55002
KCRG 220753Z AUTO 13004KT 10SM FEW060 23/23 A3007 RMK AO2 SLP181 T02280228
KCRG 220706Z AUTO 15007KT 10SM FEW014 OVC060 23/23 A3007 RMK AO2 T02330233
KCRG 220653Z AUTO 15006KT 10SM BKN014 BKN046 OVC060 23/23 A3007 RMK AO2 SLP182 T02330233
KCRG 220638Z AUTO 17003KT 9SM BKN014 OVC027 24/24 A3007 RMK AO2 T02390239
KCRG 220616Z AUTO 14005KT 10SM FEW014 BKN027 OVC120 23/23 A3008 RMK AO2 T02330233
KCRG 220553Z AUTO 13004KT 10SM BKN120 23/23 A3008 RMK AO2 SLP185 T02330233 10250 20228 58010
KCRG 220453Z AUTO 12005KT 9SM OVC120 24/24 A3009 RMK AO2 SLP188 T02390239 402720228
KCRG 220353Z AUTO 11005KT 8SM BKN110 23/23 A3011 RMK AO2 SLP195 T02330233
KCRG 220253Z AUTO 10004KT 9SM FEW110 23/23 A3011 RMK AO2 SLP196 T02330233 50009
KCRG 220153Z 11003KT 10SM BKN110 24/23 A3012 RMK AO2 SLP197 T02390233
KCRG 220053Z 11006KT 10SM FEW016 24/23 A3010 RMK AO2 SLP191 T02390233
KCRG 220029Z 16006KT 10SM FEW016 SCT120 24/23 A3009 RMK AO2 T02440228
KCRG 212353Z 16009KT 10SM BKN019 BKN026 OVC110 25/23 A3008 RMK AO2 SLP186 60000 T02500228 10267 20250 55000
KCRG 212333Z 16007KT 10SM BKN019 BKN026 OVC110 25/23 A3008 RMK AO2 T02500228
KCRG 212253Z 15009KT 10SM CLR 26/23 A3007 RMK AO2 SLP183 T02560228
KCRG 212153Z 15014KT 10SM BKN021 BKN110 26/23 A3008 RMK AO2 RAE2054 SLP185 P0000 T02610228
KCRG 212053Z 15010G17KT 10SM -RA BKN017 BKN025 OVC060 26/24 A3008 RMK AO2 RAB41 SLP186 P0000 60000 T02610239 56009
KCRG 211953Z 15010G18KT 10SM BKN017 BKN027 BKN033 26/24 A3009 RMK AO2 RAE06 SLP190 P0000 T02560239
KCRG 211853Z 15010G17KT 8SM -RA BKN016 BKN022 OVC032 25/24 A3010 RMK AO2 RAB37 SLP191 P0000 T02500239
KCRG 211753Z 14012G19KT 10SM BKN019 BKN028 26/23 A3011 RMK AO2 SLP196 60000 T02560233 10272 20239 58007
KCRG 211745Z 13012KT 10SM SCT019 BKN025 BKN032 26/23 A3011 RMK AO2 T02560233
KCRG 211653Z 13012G21KT 10SM FEW021 SCT027 BKN120 27/23 A3012 RMK AO2 SLP200 T02670233
KCRG 211553Z 15013KT 10SM SCT020 BKN120 26/23 A3013 RMK AO2 SLP202 T02610233
KCRG 211453Z 15011KT 10SM OVC090 25/23 A3013 RMK AO2 SLP203 60000 T02500228 51010
KCRG 211353Z 15009KT 10SM FEW018 BKN075 OVC090 24/23 A3013 RMK AO2 RAB23E32 SLP203 P0000 T02390228
KCRG 211253Z 14005KT 10SM BKN029 25/24 A3012 RMK AO2 SLP199 T02500239
KCRG 211229Z 14005KT 10SM BKN023 BKN075 24/24 A3012 RMK AO2 T02440239
KCRG 211153Z 14006KT 8SM FEW015 FEW020 FEW025 24/24 A3010 RMK AO2 SLP193 70001 T02390239 10239 20228 53008 $
KCRG 211053Z 13004KT 7SM CLR 23/23 A3009 RMK AO2 SLP190 T02330233 $
KCRG 210953Z AUTO 13003KT 8SM CLR 23/23 A3008 RMK AO2 SLP185 T02330233 $
KCRG 210853Z AUTO 11005KT 9SM CLR 23/23 A3008 RMK AO2 SLP185 T02330233 56010 $
KCRG 210753Z AUTO 11004KT 8SM CLR 23/23 A3008 RMK AO2 SLP186 T02330233 $
KCRG 210653Z AUTO 11003KT 8SM CLR 23/23 A3010 RMK AO2 SLP191 T02330233 $
KCRG 210553Z AUTO 12003KT 9SM CLR 23/23 A3011 RMK AO2 SLP195 60000 T02330233 10233 20228 58004 $
KCRG 210453Z AUTO 11005KT 8SM FEW031 23/23 A3012 RMK AO2 SLP198 T02330233 402390211 $
KCRG 210353Z AUTO 09004KT 8SM FEW024 SCT029 SCT037 23/23 A3013 RMK AO2 SLP203 T02330233 $
KCRG 210253Z AUTO 09003KT 9SM SCT023 SCT032 BKN120 23/23 A3012 RMK AO2 SLP199 60000 T02280228 53001 $
KCRG 210153Z AUTO 07003KT 7SM FEW025 SCT038 BKN110 23/23 A3011 RMK AO2 RAE03 SLP197 P0000 T02280228 $
KCRG 210053Z 00000KT 8SM -RA FEW016 BKN120 23/23 A3012 RMK AO2 RAB22 SLP198 P0000 T02280228 $
KCRG 210032Z 03004KT 9SM -RA SCT012 SCT032 BKN120 23/23 A3012 RMK AO2 RAB22 P0000 T02280228 $
KCRG 210022Z 05003KT 8SM -RA SCT012 BKN026 BKN110 23/23 A3012 RMK AO2 RAB22 P0000 T02280228 $
KCRG 210001Z 04005KT 7SM FEW009 FEW028 BKN120 23/23 A3011 RMK AO2 T02280228 $
KCRG 202353Z 05004KT 7SM BKN120 23/23 A3012 RMK AO2 RAB2255E27 SLP198 P0000 60000 T02280228 10239 20228 55001 $
KCRG 202316Z 05004KT 9SM -RA SCT013 SCT023 BKN120 23/23 A3011 RMK AO2 RAB2255 P0000 T02330233 $
KCRG 202312Z 04005KT 9SM -RA BKN013 BKN023 BKN120 23/23 A3011 RMK AO2 RAB2255 P0000 T02330233 $
KCRG 202305Z 05004KT 9SM -RA SCT013 BKN023 OVC120 23/23 A3011 RMK AO2 RAB2255 P0000 T02330233 $
KCRG 202253Z 04003KT 10SM SCT014 BKN095 OVC120 23/23 A3011 RMK AO2 SLP197 T02330233 $
KCRG 202225Z 00000KT 10SM SCT011 BKN021 OVC095 23/23 A3011 RMK AO2 T02330228 $